Time;durP1;ratioP1;P1;durP2;ratioP2;P2;SDS_P1;SDS_P2;PMS_P1;PMS_P2;Temp;Humidity;BMP_temperature;BMP_pressure;BME280_temperature;BME280_humidity;BME280_pressure;Samples;Min_cycle;Max_cycle;Signal;HPM_P1;HPM_P2
2022/11/01 00:01:39;;;;;;;8.98;3.25;;;;;;;14.83;44.78;94554.34;5036675;28;20098;-77
2022/11/01 00:04:04;;;;;;;8.70;2.60;;;;;;;14.84;44.73;94558.59;5020984;28;20025;-76
2022/11/01 00:06:30;;;;;;;4.65;2.72;;;;;;;14.67;44.76;94531.91;5015883;28;20047;-75
2022/11/01 00:08:55;;;;;;;9.32;2.30;;;;;;;14.82;44.84;94561.59;5037243;28;20090;-77
2022/11/01 00:11:21;;;;;;;5.10;2.60;;;;;;;14.76;44.80;94546.03;5038376;28;20075;-77
2022/11/01 00:13:47;;;;;;;3.50;2.10;;;;;;;14.80;44.98;94560.34;5018819;28;20036;-76
2022/11/01 00:16:15;;;;;;;4.38;2.38;;;;;;;14.85;44.89;94565.53;5019308;28;20057;-76
2022/11/01 00:18:40;;;;;;;4.70;2.67;;;;;;;14.59;45.12;94526.25;5037409;28;20143;-77
2022/11/01 00:21:06;;;;;;;3.65;2.45;;;;;;;14.76;45.28;94562.09;5035463;28;20104;-77
2022/11/01 00:23:32;;;;;;;3.42;2.70;;;;;;;14.73;45.18;94552.00;5036261;28;20036;-76
2022/11/01 00:25:59;;;;;;;5.80;2.28;;;;;;;14.75;45.28;94557.84;5038422;28;20024;-75
2022/11/01 00:28:25;;;;;;;5.05;2.45;;;;;;;14.69;45.31;94564.47;5036391;28;20108;-77
2022/11/01 00:30:55;;;;;;;5.22;3.30;;;;;;;14.76;45.18;94570.13;5037464;28;20122;-75
2022/11/01 00:33:21;;;;;;;5.50;2.63;;;;;;;14.76;45.22;94562.09;5034452;28;20136;-76
2022/11/01 00:35:47;;;;;;;5.20;1.90;;;;;;;14.77;45.42;94556.41;5016383;28;20036;-78
2022/11/01 00:38:13;;;;;;;5.05;2.65;;;;;;;14.64;45.27;94545.91;5036810;28;21082;-76
2022/11/01 00:40:38;;;;;;;5.15;2.90;;;;;;;14.52;45.34;94523.22;5036951;28;20108;-78
2022/11/01 00:43:04;;;;;;;6.65;2.90;;;;;;;14.78;45.30;94562.53;5038064;28;20765;-77
2022/11/01 00:45:30;;;;;;;4.57;2.92;;;;;;;14.73;45.43;94550.13;5035848;28;20027;-76
2022/11/01 00:47:55;;;;;;;4.25;3.03;;;;;;;14.72;45.44;94555.78;5020111;28;20121;-77
2022/11/01 00:50:20;;;;;;;4.68;2.67;;;;;;;14.75;45.18;94555.16;5035942;28;20025;-75
2022/11/01 00:52:46;;;;;;;4.95;2.22;;;;;;;14.67;45.34;94547.97;5036698;28;20041;-76
2022/11/01 00:55:11;;;;;;;4.75;2.72;;;;;;;14.58;45.34;94542.63;5038473;28;20029;-76
2022/11/01 00:57:37;;;;;;;5.43;2.40;;;;;;;14.72;45.33;94563.81;5035220;28;20013;-77
2022/11/01 01:00:03;;;;;;;4.65;2.58;;;;;;;14.69;45.42;94559.13;5037653;28;20028;-76
2022/11/01 01:02:29;;;;;;;9.68;2.75;;;;;;;14.63;45.34;94549.69;5034975;28;20568;-76
2022/11/01 01:04:54;;;;;;;3.67;2.08;;;;;;;14.73;45.28;94560.84;5037495;28;20101;-77
2022/11/01 01:07:19;;;;;;;3.13;2.50;;;;;;;14.67;45.14;94551.41;5018989;28;20471;-76
2022/11/01 01:09:45;;;;;;;4.25;2.75;;;;;;;14.70;45.03;94558.81;5029298;28;20614;-78
2022/11/01 01:12:10;;;;;;;4.63;2.70;;;;;;;14.55;45.17;94544.06;5035949;28;20681;-75
2022/11/01 01:14:36;;;;;;;4.25;2.67;;;;;;;14.52;45.40;94543.88;5036540;28;20460;-76
2022/11/01 01:17:01;;;;;;;5.40;2.60;;;;;;;14.56;45.35;94553.66;5036977;28;20047;-76
2022/11/01 01:19:28;;;;;;;9.95;3.05;;;;;;;14.54;45.59;94557.75;5041096;28;20025;-76
2022/11/01 01:21:54;;;;;;;5.63;2.90;;;;;;;14.38;45.31;94544.06;5040426;28;20033;-77
2022/11/01 01:24:20;;;;;;;9.38;4.75;;;;;;;14.52;45.33;94566.06;5042189;28;20045;-77
2022/11/01 01:26:45;;;;;;;6.50;3.20;;;;;;;14.51;45.61;94561.84;5040186;28;20480;-76
2022/11/01 01:29:11;;;;;;;10.20;3.33;;;;;;;14.46;45.72;94572.72;5041208;28;20563;-76
2022/11/01 01:31:36;;;;;;;6.10;3.88;;;;;;;14.32;45.59;94545.34;5039004;28;20025;-76
2022/11/01 01:34:01;;;;;;;5.93;3.17;;;;;;;14.29;45.80;94550.53;5040783;28;20449;-76
2022/11/01 01:36:27;;;;;;;8.63;3.40;;;;;;;14.17;45.90;94545.84;5040386;28;20095;-77
2022/11/01 01:38:52;;;;;;;5.15;3.00;;;;;;;14.26;45.86;94560.00;5040803;28;20519;-76
2022/11/01 01:44:40;;;;;;;8.38;3.70;;;;;;;14.21;45.99;94567.41;5038955;28;20068;-76
2022/11/01 01:47:09;;;;;;;5.40;3.25;;;;;;;13.99;46.44;94553.09;5039358;28;20485;-76
2022/11/01 01:49:34;;;;;;;11.45;3.50;;;;;;;13.99;46.26;94553.09;5040313;28;20060;-77
2022/11/01 01:52:00;;;;;;;8.55;3.45;;;;;;;14.00;46.42;94553.88;5040026;28;20115;-76
2022/11/01 01:54:26;;;;;;;4.50;3.28;;;;;;;13.77;46.30;94523.06;5041564;28;20056;-76
2022/11/01 01:56:51;;;;;;;7.60;3.75;;;;;;;14.10;46.56;94569.59;5038680;28;20029;-76
2022/11/01 01:59:17;;;;;;;6.07;3.83;;;;;;;13.91;46.34;94547.75;5041179;28;20033;-77
2022/11/01 02:01:42;;;;;;;4.38;3.08;;;;;;;14.08;46.29;94572.59;5038704;28;20106;-75
2022/11/01 02:04:18;;;;;;;7.18;3.97;;;;;;;14.03;46.46;94570.06;5041313;28;20048;-77
2022/11/01 02:06:44;;;;;;;7.47;4.25;;;;;;;13.87;46.52;94554.84;5038911;28;20021;-76
2022/11/01 02:09:10;;;;;;;6.72;3.72;;;;;;;13.95;46.21;94567.41;5040596;28;20021;-76
2022/11/01 02:11:35;;;;;;;6.55;4.20;;;;;;;13.59;46.49;94507.03;5039635;28;20788;-76
2022/11/01 02:14:01;;;;;;;10.23;5.30;;;;;;;13.83;46.77;94554.69;5039442;28;20048;-78
2022/11/01 02:16:36;;;;;;;5.03;3.58;;;;;;;13.96;46.66;94579.69;5039552;28;20041;-77
2022/11/01 02:19:26;;;;;;;9.00;3.97;;;;;;;13.95;46.51;94578.09;5040890;28;20020;-75
2022/11/01 02:22:13;;;;;;;10.50;3.38;;;;;;;13.95;46.72;94575.44;5022420;28;20655;-76
2022/11/01 02:25:03;;;;;;;6.10;2.58;;;;;;;13.95;46.69;94578.09;5038692;28;20033;-75
2022/11/01 02:27:32;;;;;;;6.10;2.35;;;;;;;13.80;46.71;94554.53;5039292;28;20029;-77
2022/11/01 02:30:14;;;;;;;7.07;4.38;;;;;;;13.88;46.75;94573.25;5038509;28;20879;-77
2022/11/01 02:32:39;;;;;;;8.98;3.05;;;;;;;13.94;46.86;94577.31;5038102;28;20499;-76
2022/11/01 02:35:24;;;;;;;6.68;3.53;;;;;;;13.85;46.76;94562.38;5040185;28;20020;-76
2022/11/01 02:38:03;;;;;;;7.85;3.58;;;;;;;13.92;46.83;94573.41;5039542;28;20636;-77
2022/11/01 02:40:47;;;;;;;5.25;3.13;;;;;;;13.89;47.05;94579.38;5038798;28;20033;-77
2022/11/01 02:43:21;;;;;;;9.90;3.78;;;;;;;13.91;46.91;94587.88;5040728;28;20131;-77
2022/11/01 02:45:49;;;;;;;8.38;2.65;;;;;;;13.87;47.17;94592.28;5021790;28;20095;-75
2022/11/01 02:48:19;;;;;;;8.63;3.00;;;;;;;13.65;47.03;94561.13;5039489;28;20021;-77
2022/11/01 02:50:55;;;;;;;8.10;3.92;;;;;;;13.81;46.91;94591.66;5040456;28;20112;-78
2022/11/01 02:53:21;;;;;;;8.30;3.38;;;;;;;13.75;46.70;94587.53;5038577;28;20117;-76
2022/11/01 02:55:46;;;;;;;6.25;2.63;;;;;;;13.69;46.67;94576.22;5039549;28;20033;-75
2022/11/01 02:58:20;;;;;;;5.47;3.15;;;;;;;13.85;46.84;94600.59;5039517;28;20020;-75
2022/11/01 03:00:46;;;;;;;6.67;3.33;;;;;;;13.79;46.75;94601.84;5038099;28;20341;-77
2022/11/01 03:03:14;;;;;;;5.40;3.05;;;;;;;13.78;47.08;94605.66;5024363;28;20027;-76
2022/11/01 03:05:52;;;;;;;5.75;3.35;;;;;;;13.74;46.81;94608.16;5039182;28;20115;-75
2022/11/01 03:08:23;;;;;;;6.38;3.65;;;;;;;13.61;46.88;94587.69;5036845;28;20899;-77
2022/11/01 03:11:06;;;;;;;5.40;3.53;;;;;;;13.71;47.01;94603.44;5038209;28;20025;-76
2022/11/01 03:14:05;;;;;;;7.13;3.05;;;;;;;13.69;46.94;94605.63;5038310;28;20024;-76
2022/11/01 03:16:31;;;;;;;6.57;3.30;;;;;;;13.62;46.95;94616.00;5038571;28;20084;-76
2022/11/01 03:19:24;;;;;;;5.93;3.50;;;;;;;13.58;47.33;94614.25;5038815;28;20226;-75
2022/11/01 03:21:53;;;;;;;6.70;3.28;;;;;;;13.51;47.23;94614.69;5039345;28;20212;-76
2022/11/01 03:24:26;;;;;;;3.83;3.05;;;;;;;13.49;47.06;94608.88;5038147;28;20035;-75
2022/11/01 03:27:01;;;;;;;10.05;3.65;;;;;;;13.55;47.20;94615.63;5040359;28;20024;-77
2022/11/01 03:29:29;;;;;;;5.60;3.38;;;;;;;13.39;47.13;94587.81;5038084;28;20362;-76
2022/11/01 03:31:56;;;;;;;8.35;3.47;;;;;;;13.57;46.94;94613.44;5039066;28;20502;-76
2022/11/01 03:34:23;;;;;;;11.05;3.60;;;;;;;13.48;47.29;94612.66;5038275;28;20029;-75
2022/11/01 03:36:52;;;;;;;5.05;3.15;;;;;;;13.52;47.28;94612.81;5039316;28;20021;-76
2022/11/01 03:39:24;;;;;;;8.70;3.03;;;;;;;13.39;47.11;94603.84;5037033;28;20477;-75
2022/11/01 03:41:55;;;;;;;6.18;3.72;;;;;;;13.37;47.26;94608.69;5038219;28;20524;-76
2022/11/01 03:44:21;;;;;;;7.63;4.40;;;;;;;13.37;47.49;94607.91;5037953;28;20504;-75
2022/11/01 03:46:49;;;;;;;6.35;3.33;;;;;;;13.27;47.50;94601.75;5038788;28;20037;-76
2022/11/01 03:49:18;;;;;;;10.57;4.15;;;;;;;13.36;47.53;94612.44;5038226;28;20032;-75
2022/11/01 03:51:43;;;;;;;9.60;4.13;;;;;;;13.35;47.91;94613.53;5038114;28;20031;-78
2022/11/01 03:54:09;;;;;;;11.52;4.25;;;;;;;13.30;47.55;94611.00;5037229;28;20021;-76
2022/11/01 03:56:39;;;;;;;6.47;3.60;;;;;;;13.14;47.81;94589.31;5035860;28;20024;-77
2022/11/01 03:59:05;;;;;;;7.30;3.83;;;;;;;13.26;47.81;94615.41;5038426;28;21009;-76
2022/11/01 04:01:31;;;;;;;6.60;3.75;;;;;;;13.22;47.85;94609.91;5037072;28;20493;-77
2022/11/01 04:03:56;;;;;;;4.80;3.20;;;;;;;13.02;47.81;94591.78;5020510;28;20078;-76
2022/11/01 04:06:21;;;;;;;15.40;5.10;;;;;;;13.06;47.78;94599.94;5036642;28;20465;-76
2022/11/01 04:08:47;;;;;;;9.30;5.07;;;;;;;13.00;47.84;94595.84;5036727;28;20035;-76
2022/11/01 04:11:12;;;;;;;6.10;4.15;;;;;;;13.11;47.97;94607.81;5020278;28;20906;-76
2022/11/01 04:13:37;;;;;;;13.50;3.63;;;;;;;12.95;48.06;94593.31;5029907;28;20032;-76
2022/11/01 04:21:39;;;;;;;4.28;2.88;;;;;;;12.91;48.01;94592.38;5036223;28;20031;-76
2022/11/01 04:24:05;;;;;;;6.22;3.40;;;;;;;12.96;47.96;94605.59;5038148;28;20021;-77
2022/11/01 04:26:30;;;;;;;7.15;3.83;;;;;;;12.83;48.41;94596.56;5034881;28;20101;-77
2022/11/01 04:28:56;;;;;;;6.45;4.03;;;;;;;12.83;48.13;94594.69;5037664;28;20074;-78
2022/11/01 04:31:26;;;;;;;7.47;3.78;;;;;;;12.92;47.77;94621.41;5036728;28;20017;-77
2022/11/01 04:33:51;;;;;;;5.78;3.97;;;;;;;12.88;48.24;94612.44;5037714;28;20852;-77
2022/11/01 04:36:17;;;;;;;11.73;5.10;;;;;;;12.80;48.19;94597.97;5036470;28;20043;-76
2022/11/01 04:38:42;;;;;;;7.80;5.15;;;;;;;12.88;48.11;94615.13;5036582;28;20040;-78
2022/11/01 04:41:08;;;;;;;10.18;4.63;;;;;;;12.84;48.30;94620.28;5038331;28;20103;-76
2022/11/01 04:43:33;;;;;;;9.88;5.68;;;;;;;12.72;48.53;94601.38;5037679;28;20692;-76
2022/11/01 04:45:58;;;;;;;10.43;5.30;;;;;;;12.75;48.69;94622.13;5013046;28;20028;-76
2022/11/01 04:48:25;;;;;;;8.50;5.60;;;;;;;12.75;48.76;94622.13;5037574;28;20036;-76
2022/11/01 04:50:50;;;;;;;10.63;5.43;;;;;;;12.67;48.80;94603.38;5038028;28;20029;-77
2022/11/01 04:53:16;;;;;;;11.55;5.82;;;;;;;12.65;48.68;94602.94;5037339;28;20031;-77
2022/11/01 04:55:41;;;;;;;10.82;5.78;;;;;;;12.55;48.74;94595.16;5036868;28;20056;-76
2022/11/01 04:58:08;;;;;;;8.35;5.63;;;;;;;12.65;48.70;94622.41;5037124;28;20131;-75
2022/11/01 05:00:34;;;;;;;10.70;5.90;;;;;;;12.46;48.51;94598.56;5019353;28;20087;-76
2022/11/01 05:03:06;;;;;;;13.00;6.20;;;;;;;12.62;48.76;94622.19;5019419;28;20020;-78
2022/11/01 05:05:34;;;;;;;13.60;6.85;;;;;;;12.35;48.70;94585.78;5037653;28;20021;-77
2022/11/01 05:08:08;;;;;;;19.33;6.97;;;;;;;12.52;48.96;94623.22;5026840;28;20024;-76
2022/11/01 05:10:35;;;;;;;10.10;5.90;;;;;;;12.53;48.77;94624.78;5037892;28;20040;-76
2022/11/01 05:13:01;;;;;;;17.52;7.25;;;;;;;12.28;48.79;94593.41;5037694;28;20048;-76
2022/11/01 05:15:26;;;;;;;17.65;7.57;;;;;;;12.40;48.86;94620.34;5037329;28;20392;-77
2022/11/01 05:17:51;;;;;;;10.65;6.53;;;;;;;12.40;49.08;94631.00;5036581;28;20049;-77
2022/11/01 05:20:17;;;;;;;12.18;6.60;;;;;;;12.35;49.18;94629.25;5036937;28;20118;-76
2022/11/01 05:22:43;;;;;;;10.10;5.32;;;;;;;12.46;49.24;94645.81;5034396;28;20036;-75
2022/11/01 05:25:08;;;;;;;11.70;5.57;;;;;;;12.37;49.08;94637.72;5037324;28;20020;-75
2022/11/01 05:27:35;;;;;;;7.18;5.22;;;;;;;12.21;49.47;94612.53;5035675;28;20588;-77
2022/11/01 05:30:00;;;;;;;6.22;4.25;;;;;;;12.47;49.47;94658.03;5034765;28;20037;-77
2022/11/01 05:32:26;;;;;;;14.13;5.57;;;;;;;12.42;49.71;94642.94;5036553;28;20027;-77
2022/11/01 05:34:51;;;;;;;9.85;4.32;;;;;;;12.44;49.67;94646.09;5017003;28;20094;-75
2022/11/01 05:37:17;;;;;;;8.15;4.03;;;;;;;12.43;49.60;94636.50;5036578;28;20123;-75
2022/11/01 05:39:42;;;;;;;8.60;6.10;;;;;;;12.47;49.71;94650.03;5037623;28;20472;-76
2022/11/01 05:42:07;;;;;;;6.38;4.35;;;;;;;12.31;49.65;94624.81;5019801;28;20120;-76
2022/11/01 05:44:33;;;;;;;7.03;4.03;;;;;;;12.37;49.98;94636.97;5037496;28;20034;-77
2022/11/01 05:47:02;;;;;;;6.75;3.83;;;;;;;12.53;49.88;94661.34;5035177;28;20826;-75
2022/11/01 05:49:27;;;;;;;6.93;3.80;;;;;;;12.41;50.04;94629.91;5036177;28;20033;-77
2022/11/01 05:51:52;;;;;;;9.27;4.80;;;;;;;12.52;49.92;94641.88;5035250;28;20047;-76
2022/11/01 05:54:18;;;;;;;14.23;5.28;;;;;;;12.64;50.29;94658.19;5036858;28;20116;-77
2022/11/01 05:56:43;;;;;;;19.55;5.00;;;;;;;12.71;49.74;94657.75;5036936;28;20393;-75
2022/11/01 05:59:08;;;;;;;9.98;4.15;;;;;;;12.76;50.00;94666.41;5017919;28;20020;-76
2022/11/01 06:01:34;;;;;;;9.32;5.00;;;;;;;12.82;49.84;94670.53;5036710;28;20561;-76
2022/11/01 06:04:00;;;;;;;12.15;4.35;;;;;;;12.88;50.09;94669.31;5019861;28;20469;-77
2022/11/01 06:06:30;;;;;;;4.82;3.28;;;;;;;12.89;49.85;94665.56;5040330;28;20031;-78
2022/11/01 06:08:56;;;;;;;9.65;3.53;;;;;;;12.92;49.65;94658.78;5040412;28;20144;-76
2022/11/01 06:11:23;;;;;;;7.53;4.10;;;;;;;12.97;49.77;94660.53;5039578;28;20035;-76
2022/11/01 06:13:56;;;;;;;11.43;4.30;;;;;;;13.04;49.94;94658.22;5034225;28;20023;-76
2022/11/01 06:16:22;;;;;;;8.85;5.53;;;;;;;13.11;49.79;94656.69;5026041;28;20095;-76
2022/11/01 06:18:48;;;;;;;11.70;8.57;;;;;;;13.15;49.56;94656.88;5037747;28;20029;-77
2022/11/01 06:21:14;;;;;;;12.10;7.00;;;;;;;13.31;49.75;94677.50;5021509;28;20044;-75
2022/11/01 06:23:40;;;;;;;11.30;7.25;;;;;;;13.19;49.67;94647.13;5035358;28;20451;-77
2022/11/01 06:26:06;;;;;;;15.70;8.00;;;;;;;13.25;49.94;94645.91;5028329;28;20037;-77
2022/11/01 06:28:32;;;;;;;12.57;8.32;;;;;;;13.54;49.53;94680.09;5036256;28;20021;-76
2022/11/01 06:31:01;;;;;;;19.98;9.43;;;;;;;13.48;49.30;94663.44;5032976;28;20033;-76
2022/11/01 06:33:27;;;;;;;32.63;15.63;;;;;;;13.67;49.56;94685.34;5015622;28;20485;-76
2022/11/01 06:35:52;;;;;;;29.95;16.67;;;;;;;13.51;49.49;94654.00;5036780;28;20025;-76
2022/11/01 06:38:18;;;;;;;24.23;13.10;;;;;;;13.72;49.64;94677.19;5036038;28;20029;-76
2022/11/01 06:40:45;;;;;;;27.83;13.25;;;;;;;13.69;49.66;94667.09;5016691;28;20532;-75
2022/11/01 06:43:10;;;;;;;17.75;10.40;;;;;;;13.83;49.83;94687.59;5014540;28;20021;-76
2022/11/01 06:45:36;;;;;;;18.48;9.30;;;;;;;13.94;49.69;94689.66;5033408;28;20025;-76
2022/11/01 06:48:01;;;;;;;17.27;9.98;;;;;;;13.82;49.58;94662.75;5035102;28;20503;-77
2022/11/01 06:50:27;;;;;;;15.52;9.63;;;;;;;14.07;49.39;94693.28;5035757;28;20507;-76
2022/11/01 06:52:56;;;;;;;16.10;9.20;;;;;;;14.00;49.04;94660.88;5035170;28;20627;-76
2022/11/01 06:55:21;;;;;;;16.25;9.38;;;;;;;14.21;49.09;94683.22;5035294;28;21049;-75
2022/11/01 06:57:58;;;;;;;20.13;10.40;;;;;;;14.29;48.88;94682.44;5036757;28;20025;-77
2022/11/01 07:00:25;;;;;;;18.50;10.38;;;;;;;14.35;48.57;94683.06;5032819;28;20684;-77
2022/11/01 07:03:05;;;;;;;21.80;10.35;;;;;;;14.19;48.86;94653.31;5035252;28;20036;-77
2022/11/01 07:05:35;;;;;;;22.17;10.65;;;;;;;14.44;48.53;94681.16;5033477;28;20400;-77
2022/11/01 07:08:01;;;;;;;20.85;12.00;;;;;;;14.35;48.43;94667.81;5032969;28;20029;-77
2022/11/01 07:10:27;;;;;;;21.50;10.18;;;;;;;14.50;48.08;94679.91;5032855;28;20017;-76
2022/11/01 07:13:00;;;;;;;24.63;10.77;;;;;;;14.39;48.17;94654.56;5032862;28;20032;-78
2022/11/01 07:15:27;;;;;;;17.38;10.35;;;;;;;14.53;47.96;94682.78;5031056;28;20686;-76
2022/11/01 07:18:00;;;;;;;22.17;9.73;;;;;;;14.57;48.08;94674.88;5012134;28;20048;-76
2022/11/01 07:20:27;;;;;;;18.98;11.30;;;;;;;14.64;48.09;94674.41;5015471;28;20021;-77
2022/11/01 07:22:59;;;;;;;13.93;10.23;;;;;;;14.78;47.85;94683.84;5017680;28;20039;-77
2022/11/01 07:25:24;;;;;;;19.67;10.85;;;;;;;14.66;47.97;94670.31;5035388;28;20024;-77
2022/11/01 07:27:50;;;;;;;18.90;11.23;;;;;;;14.71;47.95;94688.13;5038592;28;20791;-78
2022/11/01 07:30:15;;;;;;;20.73;11.57;;;;;;;14.76;47.98;94683.38;5033810;28;20074;-77
2022/11/01 07:32:40;;;;;;;17.92;10.68;;;;;;;14.55;48.05;94653.81;5023768;28;21067;-77
2022/11/01 07:35:06;;;;;;;19.10;11.02;;;;;;;14.85;47.73;94680.69;5033994;28;20460;-77
2022/11/01 07:37:32;;;;;;;14.68;9.90;;;;;;;14.82;47.86;94678.63;5033383;28;20104;-78
2022/11/01 07:39:57;;;;;;;19.77;11.57;;;;;;;14.80;47.72;94667.47;5036010;28;20475;-76
2022/11/01 07:42:22;;;;;;;20.25;12.60;;;;;;;14.96;47.23;94671.22;5015008;28;20024;-76
2022/11/01 07:44:48;;;;;;;22.70;11.63;;;;;;;15.00;47.21;94670.25;5031989;28;20029;-77
2022/11/01 07:47:13;;;;;;;17.70;10.80;;;;;;;14.99;47.04;94666.00;5033109;28;20410;-78
2022/11/01 07:49:40;;;;;;;19.63;10.52;;;;;;;14.85;47.33;94643.19;5034511;28;20449;-77
2022/11/01 07:52:05;;;;;;;20.13;11.13;;;;;;;15.00;46.84;94646.13;5034485;28;20033;-76
2022/11/01 07:54:31;;;;;;;18.30;11.10;;;;;;;14.94;47.12;94641.28;5034771;28;20120;-77
2022/11/01 07:56:56;;;;;;;20.52;11.68;;;;;;;15.22;46.61;94661.19;5033754;28;20043;-76
2022/11/01 07:59:21;;;;;;;18.85;11.50;;;;;;;15.07;46.67;94672.41;5033361;28;20129;-77
2022/11/01 08:01:47;;;;;;;19.33;11.57;;;;;;;15.23;46.61;94680.72;5032125;28;20047;-76
2022/11/01 08:04:12;;;;;;;16.52;11.35;;;;;;;15.36;46.16;94677.03;5032724;28;20194;-77
2022/11/01 08:06:37;;;;;;;20.05;11.88;;;;;;;15.52;46.42;94682.69;5034275;28;20078;-77
2022/11/01 08:09:03;;;;;;;20.77;11.32;;;;;;;15.60;46.04;94673.78;5033271;28;20061;-77
2022/11/01 08:11:28;;;;;;;25.42;12.45;;;;;;;15.25;45.98;94614.22;5035153;28;20409;-76
2022/11/01 08:13:53;;;;;;;20.73;11.88;;;;;;;15.67;45.74;94679.44;5034025;28;20658;-76
2022/11/01 08:16:19;;;;;;;20.15;12.57;;;;;;;15.76;45.70;94680.19;5033107;28;20083;-76
2022/11/01 08:18:44;;;;;;;24.25;13.48;;;;;;;15.71;45.57;94659.72;5016178;28;20037;-77
2022/11/01 08:21:11;;;;;;;19.98;13.30;;;;;;;15.84;45.39;94674.00;5035097;28;20063;-78
2022/11/01 08:23:37;;;;;;;23.65;12.90;;;;;;;15.86;45.62;94675.25;5033736;28;20027;-76
2022/11/01 08:26:05;;;;;;;17.42;11.93;;;;;;;15.92;45.25;94665.09;5034292;28;20029;-78
2022/11/01 08:28:30;;;;;;;21.33;13.30;;;;;;;15.96;44.93;94676.75;5034830;28;20033;-77
2022/11/01 08:30:56;;;;;;;24.83;11.30;;;;;;;16.05;44.73;94669.44;5032594;28;20035;-76
2022/11/01 08:33:21;;;;;;;18.80;12.60;;;;;;;15.77;44.97;94649.59;5034597;28;20060;-76
2022/11/01 08:35:46;;;;;;;22.95;12.10;;;;;;;15.97;45.25;94662.22;5034153;28;20473;-76
2022/11/01 08:38:12;;;;;;;21.23;12.68;;;;;;;16.04;45.04;94662.47;5034510;28;20131;-76
2022/11/01 08:40:39;;;;;;;19.00;10.75;;;;;;;16.12;44.58;94658.97;5026604;28;20032;-76
2022/11/01 08:43:04;;;;;;;17.27;11.55;;;;;;;16.04;44.54;94646.38;5015727;28;20179;-76
2022/11/01 08:45:30;;;;;;;23.30;12.48;;;;;;;16.30;44.42;94660.44;5034159;28;20488;-76
2022/11/01 08:47:57;;;;;;;16.02;9.93;;;;;;;16.42;44.16;94656.25;5025852;28;20024;-77
2022/11/01 08:50:22;;;;;;;16.50;9.40;;;;;;;16.05;43.83;94613.09;5030957;28;20507;-76
2022/11/01 08:52:48;;;;;;;13.68;9.70;;;;;;;16.33;44.20;94638.28;5034789;28;20040;-76
2022/11/01 08:55:13;;;;;;;16.83;10.10;;;;;;;16.37;44.23;94633.06;5033401;28;20110;-76
2022/11/01 08:57:38;;;;;;;15.85;10.32;;;;;;;16.45;44.08;94624.13;5029634;28;20178;-76
2022/11/01 09:00:06;;;;;;;15.27;9.55;;;;;;;16.66;43.89;94642.91;5011121;28;20036;-77
2022/11/01 09:02:32;;;;;;;12.82;8.60;;;;;;;16.55;43.55;94639.06;5029468;28;20032;-76
2022/11/01 09:05:01;;;;;;;16.73;7.45;;;;;;;16.53;43.49;94644.75;5027950;28;20032;-77
2022/11/01 09:07:26;;;;;;;13.40;7.80;;;;;;;16.79;43.66;94646.41;5033387;28;20032;-76
2022/11/01 09:09:52;;;;;;;14.00;7.63;;;;;;;16.84;42.91;94652.34;5033366;28;20017;-76
2022/11/01 09:12:17;;;;;;;14.80;7.00;;;;;;;16.91;43.20;94635.69;5032982;28;20039;-75
2022/11/01 09:14:42;;;;;;;16.42;8.05;;;;;;;16.98;42.98;94636.72;5031345;28;20473;-77
2022/11/01 09:17:08;;;;;;;12.73;6.88;;;;;;;16.68;42.93;94643.34;5032828;28;20044;-76
2022/11/01 09:19:33;;;;;;;11.13;7.55;;;;;;;16.76;42.94;94631.75;5032517;28;20037;-77
2022/11/01 09:21:59;;;;;;;15.73;7.45;;;;;;;16.91;42.90;94641.88;5033615;28;20455;-76
2022/11/01 09:24:24;;;;;;;15.93;8.30;;;;;;;16.61;43.30;94597.47;5033223;28;20086;-78
2022/11/01 09:26:49;;;;;;;17.60;6.70;;;;;;;16.79;42.80;94617.63;5032687;28;20032;-76
2022/11/01 09:29:17;;;;;;;15.57;6.88;;;;;;;17.02;43.05;94637.59;5031996;28;20033;-76
2022/11/01 09:31:42;;;;;;;19.80;9.77;;;;;;;17.09;43.07;94637.84;5032875;28;20029;-75
2022/11/01 09:34:10;;;;;;;13.55;9.32;;;;;;;17.16;42.85;94631.94;5031937;28;20058;-76
2022/11/01 09:36:36;;;;;;;15.63;9.35;;;;;;;17.34;42.48;94637.91;5033287;28;20069;-75
2022/11/01 09:39:01;;;;;;;15.20;9.75;;;;;;;17.41;43.13;94627.38;5032784;28;20096;-77
2022/11/01 09:41:37;;;;;;;19.23;10.45;;;;;;;17.20;42.48;94616.75;5037630;28;20067;-77
2022/11/01 09:44:06;;;;;;;22.75;12.10;;;;;;;17.21;42.71;94623.66;5029831;28;21088;-76
2022/11/01 09:46:46;;;;;;;16.23;10.43;;;;;;;17.26;43.07;94622.69;5037717;28;20468;-77
2022/11/01 09:49:20;;;;;;;18.40;10.30;;;;;;;17.40;42.53;94623.91;5034329;28;20021;-77
2022/11/01 09:51:46;;;;;;;14.88;10.05;;;;;;;17.42;42.60;94607.44;5030696;28;20102;-77
2022/11/01 09:54:11;;;;;;;16.83;10.00;;;;;;;17.64;42.49;94604.28;5015166;28;20033;-76
2022/11/01 09:56:50;;;;;;;19.70;10.55;;;;;;;17.56;41.73;94589.03;5035818;28;20024;-75
2022/11/01 09:59:29;;;;;;;18.00;11.20;;;;;;;17.71;41.87;94609.88;5014334;28;20021;-76
2022/11/01 10:02:11;;;;;;;27.48;10.68;;;;;;;17.68;41.62;94589.03;5035525;28;21160;-76
2022/11/01 10:05:12;;;;;;;15.35;10.45;;;;;;;17.88;41.74;94604.25;5034035;28;20905;-76
2022/11/01 10:08:15;;;;;;;18.10;10.38;;;;;;;17.97;41.46;94604.13;5037202;28;20029;-77
2022/11/01 10:11:00;;;;;;;14.77;9.82;;;;;;;18.02;41.27;94598.53;5036088;28;20087;-76
2022/11/01 10:13:30;;;;;;;22.65;11.25;;;;;;;18.10;41.51;94584.13;5037326;28;20021;-77
2022/11/01 10:16:01;;;;;;;17.15;10.32;;;;;;;18.09;41.23;94593.31;5035169;28;20063;-77
2022/11/01 10:18:31;;;;;;;13.50;9.30;;;;;;;18.11;41.01;94591.09;5015266;28;20678;-77
2022/11/01 10:21:02;;;;;;;19.30;10.00;;;;;;;18.10;40.94;94594.13;5037248;28;20031;-75
2022/11/01 10:23:41;;;;;;;19.77;11.07;;;;;;;18.08;41.16;94581.00;5015473;28;20124;-76
2022/11/01 10:26:17;;;;;;;15.20;10.75;;;;;;;18.09;40.86;94566.41;5030323;28;20043;-75
2022/11/01 10:29:05;;;;;;;17.85;9.75;;;;;;;18.21;41.22;94587.91;5033232;28;20447;-76
2022/11/01 10:31:38;;;;;;;16.33;9.43;;;;;;;18.25;40.97;94569.16;5023867;28;20518;-76
2022/11/01 10:34:28;;;;;;;18.00;8.35;;;;;;;18.42;40.97;94568.88;5027212;28;20075;-75
2022/11/01 10:37:13;;;;;;;16.70;8.65;;;;;;;18.45;40.69;94565.47;5030354;28;20052;-75
2022/11/01 10:39:54;;;;;;;16.05;8.88;;;;;;;18.31;40.52;94511.25;5034920;28;20056;-76
2022/11/01 10:42:21;;;;;;;16.13;8.82;;;;;;;18.71;39.97;94565.81;5015202;28;20401;-75
2022/11/01 10:44:57;;;;;;;15.93;9.18;;;;;;;18.75;39.55;94564.00;5018879;28;20056;-76
2022/11/01 10:47:24;;;;;;;12.38;7.95;;;;;;;18.80;39.75;94563.75;5032865;28;20036;-76
2022/11/01 10:50:21;;;;;;;19.15;8.38;;;;;;;18.97;39.47;94564.53;5033081;28;20064;-76
2022/11/01 10:52:52;;;;;;;17.73;9.55;;;;;;;18.94;39.46;94562.53;5008052;28;20041;-76
2022/11/01 10:55:38;;;;;;;13.82;8.00;;;;;;;18.99;39.23;94546.09;5026199;28;20528;-75
2022/11/01 10:58:13;;;;;;;14.95;8.90;;;;;;;19.00;39.86;94534.97;5035852;28;20032;-76
2022/11/01 11:00:41;;;;;;;15.95;8.48;;;;;;;19.10;39.18;94549.84;5032326;28;20377;-77
2022/11/01 11:03:24;;;;;;;17.67;8.40;;;;;;;18.99;38.65;94505.66;5032913;28;20029;-76
2022/11/01 11:05:52;;;;;;;16.90;9.00;;;;;;;19.33;38.45;94542.66;5034022;28;20036;-76
2022/11/01 11:08:21;;;;;;;12.00;7.40;;;;;;;19.26;38.49;94510.91;5030142;28;20311;-75
2022/11/01 11:10:47;;;;;;;15.38;7.88;;;;;;;19.53;38.18;94533.53;5029626;28;20052;-76
2022/11/01 11:13:15;;;;;;;12.00;7.53;;;;;;;19.64;38.44;94533.75;5029356;28;20172;-76
2022/11/01 11:15:45;;;;;;;13.90;7.93;;;;;;;19.70;38.03;94541.22;5029740;28;20116;-76
2022/11/01 11:18:22;;;;;;;14.13;7.40;;;;;;;19.74;37.95;94531.31;5036131;28;20033;-77
2022/11/01 11:20:58;;;;;;;20.85;9.90;;;;;;;19.87;37.90;94533.84;5010288;28;20106;-76
2022/11/01 11:23:26;;;;;;;14.70;8.27;;;;;;;19.86;37.75;94521.50;5029941;28;20032;-76
2022/11/01 11:25:51;;;;;;;15.82;7.95;;;;;;;20.00;37.30;94529.88;5034040;28;20037;-76
2022/11/01 11:28:29;;;;;;;15.50;7.72;;;;;;;19.97;37.43;94527.91;5033266;28;20610;-75
2022/11/01 11:30:57;;;;;;;17.38;8.82;;;;;;;19.82;37.63;94515.25;5033060;28;20322;-76
2022/11/01 11:33:22;;;;;;;13.60;7.85;;;;;;;19.80;37.39;94501.34;5029033;28;20021;-74
2022/11/01 11:35:56;;;;;;;13.77;7.85;;;;;;;19.96;37.41;94515.53;5032703;28;20370;-73
2022/11/01 11:38:51;;;;;;;13.43;7.13;;;;;;;20.06;37.04;94521.16;5032737;28;20119;-76
2022/11/01 11:41:35;;;;;;;12.48;8.45;;;;;;;20.05;36.99;94518.78;5010738;28;20033;-75
2022/11/01 11:44:01;;;;;;;18.15;7.03;;;;;;;19.76;36.85;94463.47;5033669;28;20041;-75